Aérodrome :







RETROUVEZ-NOUS SUR...

 
LOGIN :

S'inscrire | Disclaimer

   EN    FR    IT 

 









Légende :    VFR   VFR Marginal   IFR   IFR Intensif   IFR Très Intensif
Visi : 
Plafond : 
>= 8 km
>= 3000ft
5 à 8 km
1000 à 3000 ft
1500m à 5 km
500 à 1000 ft
800 à 1500m
200 à 500 ft
< 800m
< 200 ft
Symboles :   Orages  Brouillard  Fortes neiges  Fortes précipitations  Vent > 20 kt






- Altitude de l'aérodrome : 108 ft
- Code IATA : YGP


CYGP - Gaspé

METARs EXPIRÉS :
  • 222300Z 05005KT 030V100 6SM -RA OVC012 02/01 A2934 RMK SC8 PRESFR SLP939

TAF TAF CYGP
Valide du 22 à 20h jusqu'au 23 à 08h UTC


221943Z 2220/2308 14010G20KT P6SM -RA BKN025 OVC050
TEMPO 2220/2223 3SM -SNRA BR OVC015
FM222300 VRB03KT 6SM -RA BR OVC012
TEMPO 2223/2306 2SM -RA BR OVC005
FM230700 28010G20KT P6SM BKN020 RMK NXT FCST BY 230200Z



MET'MAP, la Météo Aéronautique d'un coup d'oeil ! - Copyright ORBIFLY Décembre 2007 - Disclaimer

ORBIFLY MET'MAP TEAM :

Programmation & Développement : Alexandra Zaïnal
Conception & Développement : Baudouin d'Aumeries
Co-Programmation & Développement : Marc-Olivier Méhu
Soutien technique & logistique : Manuel Goepfert

Contact : metmap@orbifly.com




SOURCES & CREDITS :

   NOAA